sensor_id;sensor_type;location;lat;lon;timestamp;temperature;humidity
20845;DHT22;10583;49.084;8.646;2022-08-19T00:02:23;22.00;99.90
20845;DHT22;10583;49.084;8.646;2022-08-19T00:04:51;22.00;99.90
20845;DHT22;10583;49.084;8.646;2022-08-19T00:07:19;22.00;99.90
20845;DHT22;10583;49.084;8.646;2022-08-19T00:09:46;21.90;99.90
20845;DHT22;10583;49.084;8.646;2022-08-19T00:12:13;21.90;99.90
20845;DHT22;10583;49.084;8.646;2022-08-19T00:14:40;21.80;99.90
20845;DHT22;10583;49.084;8.646;2022-08-19T00:17:08;21.80;99.90
20845;DHT22;10583;49.084;8.646;2022-08-19T00:19:38;21.80;99.90
20845;DHT22;10583;49.084;8.646;2022-08-19T00:22:08;21.80;99.90
20845;DHT22;10583;49.084;8.646;2022-08-19T00:24:35;21.80;99.90
20845;DHT22;10583;49.084;8.646;2022-08-19T00:27:04;21.80;99.90
20845;DHT22;10583;49.084;8.646;2022-08-19T00:29:31;21.70;99.90
20845;DHT22;10583;49.084;8.646;2022-08-19T00:31:58;21.80;99.90
20845;DHT22;10583;49.084;8.646;2022-08-19T00:34:25;21.80;99.90
20845;DHT22;10583;49.084;8.646;2022-08-19T00:36:53;21.80;99.90
20845;DHT22;10583;49.084;8.646;2022-08-19T00:39:22;21.80;99.90
20845;DHT22;10583;49.084;8.646;2022-08-19T00:41:49;21.80;99.90
20845;DHT22;10583;49.084;8.646;2022-08-19T00:44:19;21.70;99.90
20845;DHT22;10583;49.084;8.646;2022-08-19T00:46:47;21.70;99.90
20845;DHT22;10583;49.084;8.646;2022-08-19T00:49:17;21.70;99.90
20845;DHT22;10583;49.084;8.646;2022-08-19T00:51:47;21.70;99.90
20845;DHT22;10583;49.084;8.646;2022-08-19T00:54:15;21.70;99.90
20845;DHT22;10583;49.084;8.646;2022-08-19T00:56:44;21.70;99.90
20845;DHT22;10583;49.084;8.646;2022-08-19T00:59:12;21.70;99.90
20845;DHT22;10583;49.084;8.646;2022-08-19T01:01:41;21.70;99.90
20845;DHT22;10583;49.084;8.646;2022-08-19T01:04:08;21.70;99.90
20845;DHT22;10583;49.084;8.646;2022-08-19T01:06:36;21.70;99.90
20845;DHT22;10583;49.084;8.646;2022-08-19T01:09:04;21.80;99.90
20845;DHT22;10583;49.084;8.646;2022-08-19T01:11:33;21.70;99.90
20845;DHT22;10583;49.084;8.646;2022-08-19T01:14:03;21.70;99.90
20845;DHT22;10583;49.084;8.646;2022-08-19T01:16:30;21.70;99.90
20845;DHT22;10583;49.084;8.646;2022-08-19T01:18:58;21.60;99.90
20845;DHT22;10583;49.084;8.646;2022-08-19T01:21:30;21.50;99.90
20845;DHT22;10583;49.084;8.646;2022-08-19T01:23:59;21.50;99.90
20845;DHT22;10583;49.084;8.646;2022-08-19T01:26:27;21.50;99.90
20845;DHT22;10583;49.084;8.646;2022-08-19T01:28:56;21.50;99.90
20845;DHT22;10583;49.084;8.646;2022-08-19T01:31:25;21.50;99.90
20845;DHT22;10583;49.084;8.646;2022-08-19T01:33:54;21.50;99.90
20845;DHT22;10583;49.084;8.646;2022-08-19T01:36:23;21.50;99.90
20845;DHT22;10583;49.084;8.646;2022-08-19T01:38:52;21.60;99.90
20845;DHT22;10583;49.084;8.646;2022-08-19T01:41:20;21.50;99.90
20845;DHT22;10583;49.084;8.646;2022-08-19T01:43:49;21.50;99.90
20845;DHT22;10583;49.084;8.646;2022-08-19T01:46:16;21.50;99.90
20845;DHT22;10583;49.084;8.646;2022-08-19T01:48:43;21.50;99.90
20845;DHT22;10583;49.084;8.646;2022-08-19T01:51:11;21.50;99.90
20845;DHT22;10583;49.084;8.646;2022-08-19T01:53:38;21.50;99.90
20845;DHT22;10583;49.084;8.646;2022-08-19T01:56:06;21.50;99.90
20845;DHT22;10583;49.084;8.646;2022-08-19T01:58:38;21.40;99.90
20845;DHT22;10583;49.084;8.646;2022-08-19T02:01:08;21.40;99.90
20845;DHT22;10583;49.084;8.646;2022-08-19T02:03:34;21.40;99.90
20845;DHT22;10583;49.084;8.646;2022-08-19T02:06:02;21.30;99.90
20845;DHT22;10583;49.084;8.646;2022-08-19T02:08:31;21.30;99.90
20845;DHT22;10583;49.084;8.646;2022-08-19T02:10:59;21.30;99.90
20845;DHT22;10583;49.084;8.646;2022-08-19T02:13:26;21.20;99.90
20845;DHT22;10583;49.084;8.646;2022-08-19T02:15:54;21.30;99.90
20845;DHT22;10583;49.084;8.646;2022-08-19T02:18:20;21.20;99.90
20845;DHT22;10583;49.084;8.646;2022-08-19T02:20:47;21.20;99.90
20845;DHT22;10583;49.084;8.646;2022-08-19T02:23:15;21.20;99.90
20845;DHT22;10583;49.084;8.646;2022-08-19T02:25:43;21.20;99.90
20845;DHT22;10583;49.084;8.646;2022-08-19T02:28:11;21.20;99.90
20845;DHT22;10583;49.084;8.646;2022-08-19T02:30:39;21.10;99.90
20845;DHT22;10583;49.084;8.646;2022-08-19T02:33:08;21.20;99.90
20845;DHT22;10583;49.084;8.646;2022-08-19T02:35:35;21.10;99.90
20845;DHT22;10583;49.084;8.646;2022-08-19T02:38:01;21.20;99.90
20845;DHT22;10583;49.084;8.646;2022-08-19T02:40:48;21.20;99.90
20845;DHT22;10583;49.084;8.646;2022-08-19T02:43:16;21.10;99.90
20845;DHT22;10583;49.084;8.646;2022-08-19T02:45:45;21.10;99.90
20845;DHT22;10583;49.084;8.646;2022-08-19T02:48:14;21.10;99.90
20845;DHT22;10583;49.084;8.646;2022-08-19T02:50:41;21.10;99.90
20845;DHT22;10583;49.084;8.646;2022-08-19T02:53:09;21.10;99.90
20845;DHT22;10583;49.084;8.646;2022-08-19T02:55:35;21.10;99.90
20845;DHT22;10583;49.084;8.646;2022-08-19T02:58:02;21.10;99.90
20845;DHT22;10583;49.084;8.646;2022-08-19T03:00:29;21.20;99.90
20845;DHT22;10583;49.084;8.646;2022-08-19T03:02:55;21.10;99.90
20845;DHT22;10583;49.084;8.646;2022-08-19T03:05:23;21.10;99.90
20845;DHT22;10583;49.084;8.646;2022-08-19T03:07:50;21.00;99.90
20845;DHT22;10583;49.084;8.646;2022-08-19T03:10:17;21.00;99.90
20845;DHT22;10583;49.084;8.646;2022-08-19T03:12:43;20.90;99.90
20845;DHT22;10583;49.084;8.646;2022-08-19T03:15:11;20.90;99.90
20845;DHT22;10583;49.084;8.646;2022-08-19T03:17:38;20.90;99.90
20845;DHT22;10583;49.084;8.646;2022-08-19T03:20:05;20.90;99.90
20845;DHT22;10583;49.084;8.646;2022-08-19T03:22:33;20.90;99.90
20845;DHT22;10583;49.084;8.646;2022-08-19T03:25:00;20.90;99.90
20845;DHT22;10583;49.084;8.646;2022-08-19T03:27:27;20.80;99.90
20845;DHT22;10583;49.084;8.646;2022-08-19T03:29:54;20.80;99.90
20845;DHT22;10583;49.084;8.646;2022-08-19T03:32:22;20.80;99.90
20845;DHT22;10583;49.084;8.646;2022-08-19T03:34:48;20.80;99.90
20845;DHT22;10583;49.084;8.646;2022-08-19T03:37:16;20.80;99.90
20845;DHT22;10583;49.084;8.646;2022-08-19T03:39:44;20.80;99.90
20845;DHT22;10583;49.084;8.646;2022-08-19T03:42:11;20.70;99.90
20845;DHT22;10583;49.084;8.646;2022-08-19T03:44:38;20.70;99.90
20845;DHT22;10583;49.084;8.646;2022-08-19T03:47:05;20.70;99.90
20845;DHT22;10583;49.084;8.646;2022-08-19T03:49:32;20.70;99.90
20845;DHT22;10583;49.084;8.646;2022-08-19T03:52:01;20.60;99.90
20845;DHT22;10583;49.084;8.646;2022-08-19T03:54:28;20.60;99.90
20845;DHT22;10583;49.084;8.646;2022-08-19T03:56:56;20.60;99.90
20845;DHT22;10583;49.084;8.646;2022-08-19T03:59:25;20.60;99.90
20845;DHT22;10583;49.084;8.646;2022-08-19T04:01:53;20.60;99.90
20845;DHT22;10583;49.084;8.646;2022-08-19T04:04:19;20.60;99.90
20845;DHT22;10583;49.084;8.646;2022-08-19T04:06:47;20.60;99.90
20845;DHT22;10583;49.084;8.646;2022-08-19T04:09:15;20.60;99.90
20845;DHT22;10583;49.084;8.646;2022-08-19T04:11:44;20.60;99.90
20845;DHT22;10583;49.084;8.646;2022-08-19T04:14:14;20.60;99.90
20845;DHT22;10583;49.084;8.646;2022-08-19T04:16:42;20.60;99.90
20845;DHT22;10583;49.084;8.646;2022-08-19T04:19:10;20.60;99.90
20845;DHT22;10583;49.084;8.646;2022-08-19T04:21:37;20.60;99.90
20845;DHT22;10583;49.084;8.646;2022-08-19T04:24:04;20.60;99.90
20845;DHT22;10583;49.084;8.646;2022-08-19T04:26:33;20.60;99.90
20845;DHT22;10583;49.084;8.646;2022-08-19T04:29:03;20.60;99.90
20845;DHT22;10583;49.084;8.646;2022-08-19T04:31:33;20.60;99.90
20845;DHT22;10583;49.084;8.646;2022-08-19T04:34:02;20.60;99.90
20845;DHT22;10583;49.084;8.646;2022-08-19T04:36:32;20.60;99.90
20845;DHT22;10583;49.084;8.646;2022-08-19T04:39:01;20.50;99.90
20845;DHT22;10583;49.084;8.646;2022-08-19T04:41:30;20.60;99.90
20845;DHT22;10583;49.084;8.646;2022-08-19T04:44:14;20.60;99.90
20845;DHT22;10583;49.084;8.646;2022-08-19T04:46:44;20.60;99.90
20845;DHT22;10583;49.084;8.646;2022-08-19T04:49:12;20.60;99.90
20845;DHT22;10583;49.084;8.646;2022-08-19T04:51:41;20.60;99.90
20845;DHT22;10583;49.084;8.646;2022-08-19T04:54:08;20.60;99.90
20845;DHT22;10583;49.084;8.646;2022-08-19T04:56:35;20.70;99.90
20845;DHT22;10583;49.084;8.646;2022-08-19T04:59:01;20.70;99.90
20845;DHT22;10583;49.084;8.646;2022-08-19T05:01:31;20.70;99.90
20845;DHT22;10583;49.084;8.646;2022-08-19T05:04:00;20.70;99.90
20845;DHT22;10583;49.084;8.646;2022-08-19T05:06:28;20.80;99.90
20845;DHT22;10583;49.084;8.646;2022-08-19T05:08:58;20.80;99.90
20845;DHT22;10583;49.084;8.646;2022-08-19T05:11:26;20.80;99.90
20845;DHT22;10583;49.084;8.646;2022-08-19T05:13:55;20.80;99.90
20845;DHT22;10583;49.084;8.646;2022-08-19T05:16:23;20.90;99.90
20845;DHT22;10583;49.084;8.646;2022-08-19T05:18:51;20.90;99.90
20845;DHT22;10583;49.084;8.646;2022-08-19T05:21:40;20.90;99.90
20845;DHT22;10583;49.084;8.646;2022-08-19T05:24:24;20.90;99.90
20845;DHT22;10583;49.084;8.646;2022-08-19T05:26:53;21.10;99.90
20845;DHT22;10583;49.084;8.646;2022-08-19T05:29:23;21.10;99.90
20845;DHT22;10583;49.084;8.646;2022-08-19T05:31:50;21.10;99.90
20845;DHT22;10583;49.084;8.646;2022-08-19T05:34:18;21.20;99.90
20845;DHT22;10583;49.084;8.646;2022-08-19T05:36:49;21.20;99.90
20845;DHT22;10583;49.084;8.646;2022-08-19T05:39:19;21.20;99.90
20845;DHT22;10583;49.084;8.646;2022-08-19T05:41:48;21.20;99.90
20845;DHT22;10583;49.084;8.646;2022-08-19T05:44:16;21.20;99.90
20845;DHT22;10583;49.084;8.646;2022-08-19T05:46:43;21.20;99.90
20845;DHT22;10583;49.084;8.646;2022-08-19T05:49:13;21.20;99.90
20845;DHT22;10583;49.084;8.646;2022-08-19T05:51:40;21.20;99.90
20845;DHT22;10583;49.084;8.646;2022-08-19T05:54:09;21.20;99.90
20845;DHT22;10583;49.084;8.646;2022-08-19T05:56:38;21.30;99.90
20845;DHT22;10583;49.084;8.646;2022-08-19T05:59:07;21.30;99.90
20845;DHT22;10583;49.084;8.646;2022-08-19T06:01:37;21.30;99.90
20845;DHT22;10583;49.084;8.646;2022-08-19T06:04:04;21.30;99.90
20845;DHT22;10583;49.084;8.646;2022-08-19T06:06:32;21.30;99.90
20845;DHT22;10583;49.084;8.646;2022-08-19T06:09:00;21.30;99.90
20845;DHT22;10583;49.084;8.646;2022-08-19T06:11:35;21.30;99.90
20845;DHT22;10583;49.084;8.646;2022-08-19T06:14:04;21.30;99.90
20845;DHT22;10583;49.084;8.646;2022-08-19T06:16:33;21.30;99.90
20845;DHT22;10583;49.084;8.646;2022-08-19T06:19:02;21.40;99.90
20845;DHT22;10583;49.084;8.646;2022-08-19T06:21:30;21.50;99.90
20845;DHT22;10583;49.084;8.646;2022-08-19T06:23:57;21.40;99.90
20845;DHT22;10583;49.084;8.646;2022-08-19T06:26:25;21.40;99.90
20845;DHT22;10583;49.084;8.646;2022-08-19T06:28:53;21.40;99.90
20845;DHT22;10583;49.084;8.646;2022-08-19T06:31:23;21.50;99.90
20845;DHT22;10583;49.084;8.646;2022-08-19T06:33:50;21.50;99.90
20845;DHT22;10583;49.084;8.646;2022-08-19T06:36:20;21.60;99.90
20845;DHT22;10583;49.084;8.646;2022-08-19T06:38:47;21.60;99.90
20845;DHT22;10583;49.084;8.646;2022-08-19T06:41:14;21.70;99.90
20845;DHT22;10583;49.084;8.646;2022-08-19T06:43:41;21.90;99.90
20845;DHT22;10583;49.084;8.646;2022-08-19T06:46:14;21.90;99.90
20845;DHT22;10583;49.084;8.646;2022-08-19T06:48:41;21.90;99.90
20845;DHT22;10583;49.084;8.646;2022-08-19T06:51:08;22.00;99.90
20845;DHT22;10583;49.084;8.646;2022-08-19T06:53:35;22.00;99.90
20845;DHT22;10583;49.084;8.646;2022-08-19T06:56:02;22.10;99.90
20845;DHT22;10583;49.084;8.646;2022-08-19T06:58:29;22.20;99.90
20845;DHT22;10583;49.084;8.646;2022-08-19T07:00:58;22.40;99.90
20845;DHT22;10583;49.084;8.646;2022-08-19T07:03:28;22.40;99.90
20845;DHT22;10583;49.084;8.646;2022-08-19T07:05:56;22.40;99.90
20845;DHT22;10583;49.084;8.646;2022-08-19T07:08:23;22.50;99.90
20845;DHT22;10583;49.084;8.646;2022-08-19T07:10:52;22.60;99.90
20845;DHT22;10583;49.084;8.646;2022-08-19T07:13:20;22.60;99.90
20845;DHT22;10583;49.084;8.646;2022-08-19T07:15:47;22.50;99.90
20845;DHT22;10583;49.084;8.646;2022-08-19T07:18:16;22.60;99.90
20845;DHT22;10583;49.084;8.646;2022-08-19T07:20:44;22.70;99.90
20845;DHT22;10583;49.084;8.646;2022-08-19T07:23:11;22.80;99.90
20845;DHT22;10583;49.084;8.646;2022-08-19T07:25:38;22.90;99.90
20845;DHT22;10583;49.084;8.646;2022-08-19T07:28:05;22.90;99.90
20845;DHT22;10583;49.084;8.646;2022-08-19T07:30:33;22.90;99.90
20845;DHT22;10583;49.084;8.646;2022-08-19T07:33:02;23.00;99.90
20845;DHT22;10583;49.084;8.646;2022-08-19T07:35:29;23.00;99.90
20845;DHT22;10583;49.084;8.646;2022-08-19T07:37:58;23.10;99.90
20845;DHT22;10583;49.084;8.646;2022-08-19T07:40:28;23.20;99.90
20845;DHT22;10583;49.084;8.646;2022-08-19T07:42:55;23.10;99.90
20845;DHT22;10583;49.084;8.646;2022-08-19T07:45:22;23.00;99.90
20845;DHT22;10583;49.084;8.646;2022-08-19T07:47:49;23.00;99.90
20845;DHT22;10583;49.084;8.646;2022-08-19T07:50:17;22.90;99.90
20845;DHT22;10583;49.084;8.646;2022-08-19T07:52:44;23.00;99.90
20845;DHT22;10583;49.084;8.646;2022-08-19T07:55:14;23.10;99.90
20845;DHT22;10583;49.084;8.646;2022-08-19T07:57:40;23.10;99.90
20845;DHT22;10583;49.084;8.646;2022-08-19T08:00:08;23.10;99.90
20845;DHT22;10583;49.084;8.646;2022-08-19T08:02:35;23.10;99.90
20845;DHT22;10583;49.084;8.646;2022-08-19T08:05:02;23.20;99.90
20845;DHT22;10583;49.084;8.646;2022-08-19T08:07:47;23.40;99.90
20845;DHT22;10583;49.084;8.646;2022-08-19T08:10:32;23.80;99.90
20845;DHT22;10583;49.084;8.646;2022-08-19T08:12:59;24.50;99.90
20845;DHT22;10583;49.084;8.646;2022-08-19T08:15:26;25.00;99.90
20845;DHT22;10583;49.084;8.646;2022-08-19T08:17:53;25.20;99.90
20845;DHT22;10583;49.084;8.646;2022-08-19T08:20:19;25.10;99.90
20845;DHT22;10583;49.084;8.646;2022-08-19T08:22:47;25.10;99.90
20845;DHT22;10583;49.084;8.646;2022-08-19T08:25:34;25.20;99.90
20845;DHT22;10583;49.084;8.646;2022-08-19T08:28:02;25.10;99.90
20845;DHT22;10583;49.084;8.646;2022-08-19T08:30:30;25.20;99.90
20845;DHT22;10583;49.084;8.646;2022-08-19T08:32:58;25.60;99.90
20845;DHT22;10583;49.084;8.646;2022-08-19T08:35:25;25.80;99.90
20845;DHT22;10583;49.084;8.646;2022-08-19T08:37:53;26.10;99.90
20845;DHT22;10583;49.084;8.646;2022-08-19T08:40:23;26.60;99.90
20845;DHT22;10583;49.084;8.646;2022-08-19T08:42:57;26.80;99.90
20845;DHT22;10583;49.084;8.646;2022-08-19T08:45:28;26.80;99.90
20845;DHT22;10583;49.084;8.646;2022-08-19T08:47:57;27.00;99.90
20845;DHT22;10583;49.084;8.646;2022-08-19T08:50:31;27.40;99.90
20845;DHT22;10583;49.084;8.646;2022-08-19T08:53:01;27.60;99.90
20845;DHT22;10583;49.084;8.646;2022-08-19T08:55:30;27.80;99.70
20845;DHT22;10583;49.084;8.646;2022-08-19T08:58:01;27.70;99.80
20845;DHT22;10583;49.084;8.646;2022-08-19T09:00:31;27.60;99.90
20845;DHT22;10583;49.084;8.646;2022-08-19T09:02:59;27.70;99.90
20845;DHT22;10583;49.084;8.646;2022-08-19T09:05:33;28.30;99.30
20845;DHT22;10583;49.084;8.646;2022-08-19T09:08:07;28.40;99.10
20845;DHT22;10583;49.084;8.646;2022-08-19T09:10:38;28.20;99.00
20845;DHT22;10583;49.084;8.646;2022-08-19T09:13:23;28.10;98.40
20845;DHT22;10583;49.084;8.646;2022-08-19T09:15:56;27.80;98.70
20845;DHT22;10583;49.084;8.646;2022-08-19T09:18:23;28.20;98.60
20845;DHT22;10583;49.084;8.646;2022-08-19T09:20:50;28.10;98.20
20845;DHT22;10583;49.084;8.646;2022-08-19T09:23:17;28.30;98.10
20845;DHT22;10583;49.084;8.646;2022-08-19T09:25:45;28.60;97.80
20845;DHT22;10583;49.084;8.646;2022-08-19T09:28:13;29.00;97.20
20845;DHT22;10583;49.084;8.646;2022-08-19T09:30:41;29.50;96.70
20845;DHT22;10583;49.084;8.646;2022-08-19T09:33:08;29.60;96.10
20845;DHT22;10583;49.084;8.646;2022-08-19T09:35:34;29.70;95.70
20845;DHT22;10583;49.084;8.646;2022-08-19T09:38:02;29.90;95.60
20845;DHT22;10583;49.084;8.646;2022-08-19T09:40:29;29.70;95.50
20845;DHT22;10583;49.084;8.646;2022-08-19T09:42:57;29.80;94.90
20845;DHT22;10583;49.084;8.646;2022-08-19T09:45:29;29.90;94.70
20845;DHT22;10583;49.084;8.646;2022-08-19T09:47:56;30.10;94.80
20845;DHT22;10583;49.084;8.646;2022-08-19T09:50:23;30.70;94.40
20845;DHT22;10583;49.084;8.646;2022-08-19T09:52:50;31.00;93.60
20845;DHT22;10583;49.084;8.646;2022-08-19T09:55:18;30.50;93.40
20845;DHT22;10583;49.084;8.646;2022-08-19T09:57:45;29.90;94.60
20845;DHT22;10583;49.084;8.646;2022-08-19T10:00:12;29.20;94.10
20845;DHT22;10583;49.084;8.646;2022-08-19T10:02:40;28.70;94.30
20845;DHT22;10583;49.084;8.646;2022-08-19T10:05:07;28.40;95.00
20845;DHT22;10583;49.084;8.646;2022-08-19T10:07:52;28.30;94.90
20845;DHT22;10583;49.084;8.646;2022-08-19T10:10:20;28.10;94.40
20845;DHT22;10583;49.084;8.646;2022-08-19T10:12:46;28.00;95.00
20845;DHT22;10583;49.084;8.646;2022-08-19T10:15:14;28.50;94.70
20845;DHT22;10583;49.084;8.646;2022-08-19T10:17:42;28.70;94.10
20845;DHT22;10583;49.084;8.646;2022-08-19T10:20:09;28.60;94.30
20845;DHT22;10583;49.084;8.646;2022-08-19T10:22:36;28.50;94.00
20845;DHT22;10583;49.084;8.646;2022-08-19T10:25:05;28.30;94.20
20845;DHT22;10583;49.084;8.646;2022-08-19T10:27:32;28.40;94.50
20845;DHT22;10583;49.084;8.646;2022-08-19T10:29:59;28.30;94.00
20845;DHT22;10583;49.084;8.646;2022-08-19T10:32:26;27.80;94.50
20845;DHT22;10583;49.084;8.646;2022-08-19T10:34:56;27.70;94.90
20845;DHT22;10583;49.084;8.646;2022-08-19T10:37:22;27.90;94.60
20845;DHT22;10583;49.084;8.646;2022-08-19T10:39:50;28.20;95.10
20845;DHT22;10583;49.084;8.646;2022-08-19T10:42:17;28.00;94.90
20845;DHT22;10583;49.084;8.646;2022-08-19T10:44:44;28.00;94.80
20845;DHT22;10583;49.084;8.646;2022-08-19T10:47:11;27.90;94.80
20845;DHT22;10583;49.084;8.646;2022-08-19T10:49:38;27.80;94.80
20845;DHT22;10583;49.084;8.646;2022-08-19T10:52:26;27.70;94.60
20845;DHT22;10583;49.084;8.646;2022-08-19T10:55:03;28.20;94.40
20845;DHT22;10583;49.084;8.646;2022-08-19T10:57:48;28.90;93.50
20845;DHT22;10583;49.084;8.646;2022-08-19T11:00:15;29.00;93.70
20845;DHT22;10583;49.084;8.646;2022-08-19T11:02:42;29.10;93.50
20845;DHT22;10583;49.084;8.646;2022-08-19T11:05:09;29.40;93.70
20845;DHT22;10583;49.084;8.646;2022-08-19T11:07:38;29.50;93.20
20845;DHT22;10583;49.084;8.646;2022-08-19T11:10:06;29.70;92.60
20845;DHT22;10583;49.084;8.646;2022-08-19T11:12:36;30.00;91.60
20845;DHT22;10583;49.084;8.646;2022-08-19T11:15:05;30.20;91.40
20845;DHT22;10583;49.084;8.646;2022-08-19T11:17:33;30.70;91.70
20845;DHT22;10583;49.084;8.646;2022-08-19T11:19:59;30.90;91.90
20845;DHT22;10583;49.084;8.646;2022-08-19T11:22:29;31.10;91.80
20845;DHT22;10583;49.084;8.646;2022-08-19T11:24:57;31.00;91.30
20845;DHT22;10583;49.084;8.646;2022-08-19T11:27:24;30.30;91.60
20845;DHT22;10583;49.084;8.646;2022-08-19T11:29:50;29.80;91.50
20845;DHT22;10583;49.084;8.646;2022-08-19T11:32:18;29.50;92.00
20845;DHT22;10583;49.084;8.646;2022-08-19T11:34:45;29.40;92.20
20845;DHT22;10583;49.084;8.646;2022-08-19T11:37:11;29.30;92.20
20845;DHT22;10583;49.084;8.646;2022-08-19T11:39:38;29.30;91.20
20845;DHT22;10583;49.084;8.646;2022-08-19T11:42:07;29.60;91.00
20845;DHT22;10583;49.084;8.646;2022-08-19T11:44:47;30.10;91.10
20845;DHT22;10583;49.084;8.646;2022-08-19T11:47:14;30.80;90.90
20845;DHT22;10583;49.084;8.646;2022-08-19T11:49:41;31.30;90.60
20845;DHT22;10583;49.084;8.646;2022-08-19T11:52:08;31.20;90.70
20845;DHT22;10583;49.084;8.646;2022-08-19T11:54:36;31.60;90.20
20845;DHT22;10583;49.084;8.646;2022-08-19T11:57:03;31.70;88.30
20845;DHT22;10583;49.084;8.646;2022-08-19T11:59:31;31.60;89.60
20845;DHT22;10583;49.084;8.646;2022-08-19T12:01:58;31.60;89.80
20845;DHT22;10583;49.084;8.646;2022-08-19T12:04:25;31.50;88.70
20845;DHT22;10583;49.084;8.646;2022-08-19T12:06:51;31.10;89.80
20845;DHT22;10583;49.084;8.646;2022-08-19T12:09:18;30.60;89.60
20845;DHT22;10583;49.084;8.646;2022-08-19T12:11:45;30.00;90.20
20845;DHT22;10583;49.084;8.646;2022-08-19T12:14:13;29.80;90.30
20845;DHT22;10583;49.084;8.646;2022-08-19T12:16:43;29.90;89.00
20845;DHT22;10583;49.084;8.646;2022-08-19T12:19:10;30.30;88.60
20845;DHT22;10583;49.084;8.646;2022-08-19T12:21:37;30.60;87.50
20845;DHT22;10583;49.084;8.646;2022-08-19T12:24:05;30.80;88.00
20845;DHT22;10583;49.084;8.646;2022-08-19T12:26:33;30.70;88.80
20845;DHT22;10583;49.084;8.646;2022-08-19T12:28:59;30.70;88.30
20845;DHT22;10583;49.084;8.646;2022-08-19T12:31:26;30.60;87.10
20845;DHT22;10583;49.084;8.646;2022-08-19T12:33:55;30.40;87.60
20845;DHT22;10583;49.084;8.646;2022-08-19T12:36:22;30.30;87.90
20845;DHT22;10583;49.084;8.646;2022-08-19T12:38:50;30.60;87.10
20845;DHT22;10583;49.084;8.646;2022-08-19T12:41:19;31.10;87.20
20845;DHT22;10583;49.084;8.646;2022-08-19T12:43:47;31.40;85.00
20845;DHT22;10583;49.084;8.646;2022-08-19T12:46:15;31.60;84.50
20845;DHT22;10583;49.084;8.646;2022-08-19T12:48:41;31.70;82.90
20845;DHT22;10583;49.084;8.646;2022-08-19T12:51:15;31.90;82.40
20845;DHT22;10583;49.084;8.646;2022-08-19T12:53:42;31.70;81.70
20845;DHT22;10583;49.084;8.646;2022-08-19T12:56:10;31.50;80.80
20845;DHT22;10583;49.084;8.646;2022-08-19T12:58:38;31.40;81.50
20845;DHT22;10583;49.084;8.646;2022-08-19T13:01:08;31.30;81.70
20845;DHT22;10583;49.084;8.646;2022-08-19T13:03:35;31.10;82.10
20845;DHT22;10583;49.084;8.646;2022-08-19T13:06:02;30.70;82.40
20845;DHT22;10583;49.084;8.646;2022-08-19T13:08:30;30.50;82.00
20845;DHT22;10583;49.084;8.646;2022-08-19T13:10:57;30.50;82.50
20845;DHT22;10583;49.084;8.646;2022-08-19T13:13:25;30.50;82.30
20845;DHT22;10583;49.084;8.646;2022-08-19T13:15:52;30.40;82.30
20845;DHT22;10583;49.084;8.646;2022-08-19T13:18:18;30.40;82.90
20845;DHT22;10583;49.084;8.646;2022-08-19T13:20:45;30.40;83.20
20845;DHT22;10583;49.084;8.646;2022-08-19T13:23:12;30.10;82.90
20845;DHT22;10583;49.084;8.646;2022-08-19T13:25:40;30.00;83.90
20845;DHT22;10583;49.084;8.646;2022-08-19T13:28:06;29.90;84.90
20845;DHT22;10583;49.084;8.646;2022-08-19T13:30:33;29.70;85.30
20845;DHT22;10583;49.084;8.646;2022-08-19T13:33:18;29.80;84.20
20845;DHT22;10583;49.084;8.646;2022-08-19T13:35:47;30.00;85.00
20845;DHT22;10583;49.084;8.646;2022-08-19T13:38:16;29.90;85.00
20845;DHT22;10583;49.084;8.646;2022-08-19T13:40:45;29.80;85.20
20845;DHT22;10583;49.084;8.646;2022-08-19T13:43:11;29.70;86.40
20845;DHT22;10583;49.084;8.646;2022-08-19T13:45:39;29.70;86.90
20845;DHT22;10583;49.084;8.646;2022-08-19T13:48:07;29.80;87.30
20845;DHT22;10583;49.084;8.646;2022-08-19T13:50:38;29.80;85.70
20845;DHT22;10583;49.084;8.646;2022-08-19T13:53:06;29.50;85.60
20845;DHT22;10583;49.084;8.646;2022-08-19T13:55:33;29.60;84.90
20845;DHT22;10583;49.084;8.646;2022-08-19T13:58:02;29.70;84.30
20845;DHT22;10583;49.084;8.646;2022-08-19T14:00:32;29.80;83.90
20845;DHT22;10583;49.084;8.646;2022-08-19T14:03:00;29.80;85.10
20845;DHT22;10583;49.084;8.646;2022-08-19T14:05:29;30.00;83.50
20845;DHT22;10583;49.084;8.646;2022-08-19T14:07:55;30.10;83.00
20845;DHT22;10583;49.084;8.646;2022-08-19T14:10:23;30.30;83.90
20845;DHT22;10583;49.084;8.646;2022-08-19T14:12:52;30.40;82.30
20845;DHT22;10583;49.084;8.646;2022-08-19T14:15:22;30.20;82.70
20845;DHT22;10583;49.084;8.646;2022-08-19T14:17:49;30.10;83.00
20845;DHT22;10583;49.084;8.646;2022-08-19T14:20:17;30.20;83.30
20845;DHT22;10583;49.084;8.646;2022-08-19T14:22:44;30.20;82.80
20845;DHT22;10583;49.084;8.646;2022-08-19T14:25:13;30.00;83.50
20845;DHT22;10583;49.084;8.646;2022-08-19T14:27:41;29.90;82.50
20845;DHT22;10583;49.084;8.646;2022-08-19T14:30:10;29.90;81.60
20845;DHT22;10583;49.084;8.646;2022-08-19T14:32:38;29.90;83.20
20845;DHT22;10583;49.084;8.646;2022-08-19T14:35:06;29.90;82.40
20845;DHT22;10583;49.084;8.646;2022-08-19T14:37:34;29.60;81.90
20845;DHT22;10583;49.084;8.646;2022-08-19T14:40:01;29.60;81.40
20845;DHT22;10583;49.084;8.646;2022-08-19T14:42:27;29.60;81.70
20845;DHT22;10583;49.084;8.646;2022-08-19T14:44:57;29.60;82.30
20845;DHT22;10583;49.084;8.646;2022-08-19T14:47:24;29.60;82.30
20845;DHT22;10583;49.084;8.646;2022-08-19T14:49:53;29.60;82.20
20845;DHT22;10583;49.084;8.646;2022-08-19T14:52:21;29.60;81.90
20845;DHT22;10583;49.084;8.646;2022-08-19T14:54:47;29.50;81.70
20845;DHT22;10583;49.084;8.646;2022-08-19T14:57:14;29.40;82.90
20845;DHT22;10583;49.084;8.646;2022-08-19T14:59:41;29.40;82.00
20845;DHT22;10583;49.084;8.646;2022-08-19T15:02:08;29.50;81.90
20845;DHT22;10583;49.084;8.646;2022-08-19T15:04:35;29.50;82.30
20845;DHT22;10583;49.084;8.646;2022-08-19T15:07:03;29.40;81.60
20845;DHT22;10583;49.084;8.646;2022-08-19T15:09:30;29.30;82.00
20845;DHT22;10583;49.084;8.646;2022-08-19T15:11:57;29.20;81.30
20845;DHT22;10583;49.084;8.646;2022-08-19T15:14:25;29.10;82.30
20845;DHT22;10583;49.084;8.646;2022-08-19T15:16:52;28.90;81.80
20845;DHT22;10583;49.084;8.646;2022-08-19T15:19:19;28.90;81.70
20845;DHT22;10583;49.084;8.646;2022-08-19T15:21:46;29.10;82.50
20845;DHT22;10583;49.084;8.646;2022-08-19T15:24:14;29.10;81.90
20845;DHT22;10583;49.084;8.646;2022-08-19T15:26:43;29.00;81.90
20845;DHT22;10583;49.084;8.646;2022-08-19T15:29:09;28.90;81.90
20845;DHT22;10583;49.084;8.646;2022-08-19T15:31:39;28.70;82.00
20845;DHT22;10583;49.084;8.646;2022-08-19T15:34:06;28.60;82.10
20845;DHT22;10583;49.084;8.646;2022-08-19T15:36:33;28.70;82.10
20845;DHT22;10583;49.084;8.646;2022-08-19T15:39:01;28.70;82.10